sensor_id;sensor_type;location;lat;lon;timestamp;P1;durP1;ratioP1;P2;durP2;ratioP2
78406;SDS011;67692;51.074;-1.790;2023-06-10T00:00:54;14.80;;;5.65;;
78406;SDS011;67692;51.074;-1.790;2023-06-10T00:03:21;13.57;;;5.75;;
78406;SDS011;67692;51.074;-1.790;2023-06-10T00:05:49;16.92;;;6.32;;
78406;SDS011;67692;51.074;-1.790;2023-06-10T00:08:17;15.13;;;6.80;;
78406;SDS011;67692;51.074;-1.790;2023-06-10T00:10:44;12.50;;;6.22;;
78406;SDS011;67692;51.074;-1.790;2023-06-10T00:13:11;13.70;;;5.65;;
78406;SDS011;67692;51.074;-1.790;2023-06-10T00:15:38;16.20;;;5.72;;
78406;SDS011;67692;51.074;-1.790;2023-06-10T00:18:05;15.52;;;5.97;;
78406;SDS011;67692;51.074;-1.790;2023-06-10T00:25:32;14.43;;;5.55;;
78406;SDS011;67692;51.074;-1.790;2023-06-10T00:27:59;13.82;;;5.70;;
78406;SDS011;67692;51.074;-1.790;2023-06-10T00:30:25;11.30;;;5.30;;
78406;SDS011;67692;51.074;-1.790;2023-06-10T00:32:53;15.65;;;6.20;;
78406;SDS011;67692;51.074;-1.790;2023-06-10T00:35:19;16.77;;;5.80;;
78406;SDS011;67692;51.074;-1.790;2023-06-10T00:37:46;15.48;;;6.30;;
78406;SDS011;67692;51.074;-1.790;2023-06-10T00:40:12;14.35;;;6.00;;
78406;SDS011;67692;51.074;-1.790;2023-06-10T00:42:41;15.07;;;5.60;;
78406;SDS011;67692;51.074;-1.790;2023-06-10T00:45:07;15.25;;;6.32;;
78406;SDS011;67692;51.074;-1.790;2023-06-10T00:47:34;14.65;;;6.50;;
78406;SDS011;67692;51.074;-1.790;2023-06-10T00:50:01;15.85;;;5.90;;
78406;SDS011;67692;51.074;-1.790;2023-06-10T00:52:28;14.40;;;6.38;;
78406;SDS011;67692;51.074;-1.790;2023-06-10T00:54:55;11.23;;;6.38;;
78406;SDS011;67692;51.074;-1.790;2023-06-10T00:57:23;11.45;;;6.40;;
78406;SDS011;67692;51.074;-1.790;2023-06-10T00:59:51;14.18;;;6.10;;
78406;SDS011;67692;51.074;-1.790;2023-06-10T01:02:18;18.08;;;6.85;;
78406;SDS011;67692;51.074;-1.790;2023-06-10T01:04:45;17.98;;;7.07;;
78406;SDS011;67692;51.074;-1.790;2023-06-10T01:07:15;16.30;;;5.85;;
78406;SDS011;67692;51.074;-1.790;2023-06-10T01:09:50;15.02;;;6.38;;
78406;SDS011;67692;51.074;-1.790;2023-06-10T01:12:24;14.57;;;6.18;;
78406;SDS011;67692;51.074;-1.790;2023-06-10T01:14:58;16.30;;;6.43;;
78406;SDS011;67692;51.074;-1.790;2023-06-10T01:17:25;12.65;;;6.47;;
78406;SDS011;67692;51.074;-1.790;2023-06-10T01:19:53;17.92;;;6.72;;
78406;SDS011;67692;51.074;-1.790;2023-06-10T01:22:23;18.35;;;6.05;;
78406;SDS011;67692;51.074;-1.790;2023-06-10T01:24:50;22.60;;;7.05;;
78406;SDS011;67692;51.074;-1.790;2023-06-10T01:27:19;19.00;;;6.50;;
78406;SDS011;67692;51.074;-1.790;2023-06-10T01:29:49;14.20;;;6.35;;
78406;SDS011;67692;51.074;-1.790;2023-06-10T01:32:22;20.45;;;6.50;;
78406;SDS011;67692;51.074;-1.790;2023-06-10T01:34:55;12.43;;;6.22;;
78406;SDS011;67692;51.074;-1.790;2023-06-10T01:37:24;14.02;;;6.93;;
78406;SDS011;67692;51.074;-1.790;2023-06-10T01:39:52;21.90;;;7.50;;
78406;SDS011;67692;51.074;-1.790;2023-06-10T01:42:20;12.65;;;6.68;;
78406;SDS011;67692;51.074;-1.790;2023-06-10T01:44:47;17.05;;;6.90;;
78406;SDS011;67692;51.074;-1.790;2023-06-10T01:47:14;18.80;;;6.63;;
78406;SDS011;67692;51.074;-1.790;2023-06-10T01:49:41;18.08;;;5.95;;
78406;SDS011;67692;51.074;-1.790;2023-06-10T01:52:08;16.05;;;6.25;;
78406;SDS011;67692;51.074;-1.790;2023-06-10T01:54:36;15.60;;;6.60;;
78406;SDS011;67692;51.074;-1.790;2023-06-10T01:57:03;15.73;;;6.35;;
78406;SDS011;67692;51.074;-1.790;2023-06-10T01:59:31;13.68;;;6.25;;
78406;SDS011;67692;51.074;-1.790;2023-06-10T02:01:57;19.23;;;6.43;;
78406;SDS011;67692;51.074;-1.790;2023-06-10T02:04:24;17.95;;;6.53;;
78406;SDS011;67692;51.074;-1.790;2023-06-10T02:06:51;16.40;;;6.70;;
78406;SDS011;67692;51.074;-1.790;2023-06-10T02:09:18;13.63;;;5.65;;
78406;SDS011;67692;51.074;-1.790;2023-06-10T02:11:46;16.85;;;6.10;;
78406;SDS011;67692;51.074;-1.790;2023-06-10T02:14:12;16.10;;;6.57;;
78406;SDS011;67692;51.074;-1.790;2023-06-10T02:16:39;17.40;;;6.65;;
78406;SDS011;67692;51.074;-1.790;2023-06-10T02:19:06;15.52;;;6.47;;
78406;SDS011;67692;51.074;-1.790;2023-06-10T02:21:32;18.98;;;6.65;;
78406;SDS011;67692;51.074;-1.790;2023-06-10T02:23:59;14.02;;;6.28;;
78406;SDS011;67692;51.074;-1.790;2023-06-10T02:26:26;16.95;;;6.22;;
78406;SDS011;67692;51.074;-1.790;2023-06-10T02:28:54;13.80;;;6.53;;
78406;SDS011;67692;51.074;-1.790;2023-06-10T02:31:20;16.45;;;7.32;;
78406;SDS011;67692;51.074;-1.790;2023-06-10T02:33:48;13.63;;;6.05;;
78406;SDS011;67692;51.074;-1.790;2023-06-10T02:36:15;13.90;;;6.40;;
78406;SDS011;67692;51.074;-1.790;2023-06-10T02:38:41;19.17;;;6.25;;
78406;SDS011;67692;51.074;-1.790;2023-06-10T02:41:08;15.32;;;6.25;;
78406;SDS011;67692;51.074;-1.790;2023-06-10T02:43:35;11.38;;;5.75;;
78406;SDS011;67692;51.074;-1.790;2023-06-10T02:46:03;16.90;;;6.47;;
78406;SDS011;67692;51.074;-1.790;2023-06-10T02:48:29;17.02;;;7.03;;
78406;SDS011;67692;51.074;-1.790;2023-06-10T02:50:56;15.77;;;5.82;;
78406;SDS011;67692;51.074;-1.790;2023-06-10T02:53:22;18.35;;;6.30;;
78406;SDS011;67692;51.074;-1.790;2023-06-10T02:55:49;17.17;;;5.95;;
78406;SDS011;67692;51.074;-1.790;2023-06-10T02:58:16;18.05;;;7.32;;
78406;SDS011;67692;51.074;-1.790;2023-06-10T03:00:42;17.90;;;7.35;;
78406;SDS011;67692;51.074;-1.790;2023-06-10T03:03:11;20.58;;;6.28;;
78406;SDS011;67692;51.074;-1.790;2023-06-10T03:05:38;14.88;;;6.22;;
78406;SDS011;67692;51.074;-1.790;2023-06-10T03:08:05;18.55;;;6.45;;
78406;SDS011;67692;51.074;-1.790;2023-06-10T03:10:31;14.60;;;6.50;;
78406;SDS011;67692;51.074;-1.790;2023-06-10T03:12:58;16.27;;;6.10;;
78406;SDS011;67692;51.074;-1.790;2023-06-10T03:15:25;13.38;;;5.82;;
78406;SDS011;67692;51.074;-1.790;2023-06-10T03:17:53;20.27;;;6.50;;
78406;SDS011;67692;51.074;-1.790;2023-06-10T03:20:21;17.50;;;6.55;;
78406;SDS011;67692;51.074;-1.790;2023-06-10T03:22:48;17.45;;;6.85;;
78406;SDS011;67692;51.074;-1.790;2023-06-10T03:25:15;13.00;;;5.38;;
78406;SDS011;67692;51.074;-1.790;2023-06-10T03:27:42;16.83;;;6.30;;
78406;SDS011;67692;51.074;-1.790;2023-06-10T03:30:09;15.95;;;6.00;;
78406;SDS011;67692;51.074;-1.790;2023-06-10T03:32:37;20.35;;;7.00;;
78406;SDS011;67692;51.074;-1.790;2023-06-10T03:35:04;10.75;;;6.07;;
78406;SDS011;67692;51.074;-1.790;2023-06-10T03:37:33;23.17;;;6.35;;
78406;SDS011;67692;51.074;-1.790;2023-06-10T03:39:59;13.75;;;6.25;;
78406;SDS011;67692;51.074;-1.790;2023-06-10T03:42:26;20.35;;;7.55;;
78406;SDS011;67692;51.074;-1.790;2023-06-10T03:44:52;19.50;;;6.07;;
78406;SDS011;67692;51.074;-1.790;2023-06-10T03:47:20;14.18;;;6.00;;
78406;SDS011;67692;51.074;-1.790;2023-06-10T03:49:46;19.02;;;6.32;;
78406;SDS011;67692;51.074;-1.790;2023-06-10T03:52:13;17.70;;;5.97;;
78406;SDS011;67692;51.074;-1.790;2023-06-10T03:54:41;14.27;;;5.82;;
78406;SDS011;67692;51.074;-1.790;2023-06-10T03:57:07;14.45;;;5.70;;
78406;SDS011;67692;51.074;-1.790;2023-06-10T03:59:34;16.48;;;6.55;;
78406;SDS011;67692;51.074;-1.790;2023-06-10T04:02:01;16.33;;;6.53;;
78406;SDS011;67692;51.074;-1.790;2023-06-10T04:04:29;13.93;;;5.97;;
78406;SDS011;67692;51.074;-1.790;2023-06-10T04:06:56;15.93;;;6.05;;
78406;SDS011;67692;51.074;-1.790;2023-06-10T04:09:23;15.25;;;5.93;;
78406;SDS011;67692;51.074;-1.790;2023-06-10T04:11:51;17.00;;;7.20;;
78406;SDS011;67692;51.074;-1.790;2023-06-10T04:14:17;14.77;;;6.50;;
78406;SDS011;67692;51.074;-1.790;2023-06-10T04:16:44;22.63;;;6.57;;
78406;SDS011;67692;51.074;-1.790;2023-06-10T04:19:10;18.52;;;6.55;;
78406;SDS011;67692;51.074;-1.790;2023-06-10T04:21:37;18.35;;;6.40;;
78406;SDS011;67692;51.074;-1.790;2023-06-10T04:24:03;16.77;;;6.53;;
78406;SDS011;67692;51.074;-1.790;2023-06-10T04:26:30;17.85;;;6.25;;
78406;SDS011;67692;51.074;-1.790;2023-06-10T04:28:58;17.40;;;7.00;;
78406;SDS011;67692;51.074;-1.790;2023-06-10T04:31:25;15.27;;;6.15;;
78406;SDS011;67692;51.074;-1.790;2023-06-10T04:33:51;18.27;;;6.57;;
78406;SDS011;67692;51.074;-1.790;2023-06-10T04:36:18;15.25;;;6.43;;
78406;SDS011;67692;51.074;-1.790;2023-06-10T04:38:45;17.80;;;6.70;;
78406;SDS011;67692;51.074;-1.790;2023-06-10T04:41:11;19.20;;;7.13;;
78406;SDS011;67692;51.074;-1.790;2023-06-10T04:43:38;18.50;;;6.53;;
78406;SDS011;67692;51.074;-1.790;2023-06-10T04:46:06;19.08;;;7.03;;
78406;SDS011;67692;51.074;-1.790;2023-06-10T04:48:33;12.68;;;6.07;;
78406;SDS011;67692;51.074;-1.790;2023-06-10T04:51:01;20.63;;;6.55;;
78406;SDS011;67692;51.074;-1.790;2023-06-10T04:53:27;19.75;;;7.60;;
78406;SDS011;67692;51.074;-1.790;2023-06-10T04:55:54;19.90;;;7.15;;
78406;SDS011;67692;51.074;-1.790;2023-06-10T04:58:22;17.05;;;6.60;;
78406;SDS011;67692;51.074;-1.790;2023-06-10T05:00:49;17.25;;;6.80;;
78406;SDS011;67692;51.074;-1.790;2023-06-10T05:03:17;16.98;;;6.63;;
78406;SDS011;67692;51.074;-1.790;2023-06-10T05:05:43;14.07;;;6.53;;
78406;SDS011;67692;51.074;-1.790;2023-06-10T05:08:10;25.95;;;7.22;;
78406;SDS011;67692;51.074;-1.790;2023-06-10T05:10:36;18.95;;;7.45;;
78406;SDS011;67692;51.074;-1.790;2023-06-10T05:13:03;15.60;;;6.45;;
78406;SDS011;67692;51.074;-1.790;2023-06-10T05:15:30;18.77;;;6.72;;
78406;SDS011;67692;51.074;-1.790;2023-06-10T05:17:56;15.20;;;6.25;;
78406;SDS011;67692;51.074;-1.790;2023-06-10T05:20:25;18.38;;;7.13;;
78406;SDS011;67692;51.074;-1.790;2023-06-10T05:22:53;20.25;;;6.85;;
78406;SDS011;67692;51.074;-1.790;2023-06-10T05:25:20;20.60;;;7.30;;
78406;SDS011;67692;51.074;-1.790;2023-06-10T05:27:47;15.43;;;6.22;;
78406;SDS011;67692;51.074;-1.790;2023-06-10T05:30:13;16.60;;;6.85;;
78406;SDS011;67692;51.074;-1.790;2023-06-10T05:32:40;21.50;;;7.10;;
78406;SDS011;67692;51.074;-1.790;2023-06-10T05:35:06;15.82;;;7.22;;
78406;SDS011;67692;51.074;-1.790;2023-06-10T05:37:34;20.02;;;6.40;;
78406;SDS011;67692;51.074;-1.790;2023-06-10T05:40:02;19.10;;;7.25;;
78406;SDS011;67692;51.074;-1.790;2023-06-10T05:42:29;19.15;;;8.57;;
78406;SDS011;67692;51.074;-1.790;2023-06-10T05:44:56;15.32;;;5.97;;
78406;SDS011;67692;51.074;-1.790;2023-06-10T05:47:22;23.35;;;6.70;;
78406;SDS011;67692;51.074;-1.790;2023-06-10T05:49:49;16.55;;;6.15;;
78406;SDS011;67692;51.074;-1.790;2023-06-10T05:52:16;17.92;;;6.47;;
78406;SDS011;67692;51.074;-1.790;2023-06-10T05:54:44;16.60;;;5.50;;
78406;SDS011;67692;51.074;-1.790;2023-06-10T05:57:11;15.75;;;6.75;;
78406;SDS011;67692;51.074;-1.790;2023-06-10T05:59:38;19.98;;;6.72;;
78406;SDS011;67692;51.074;-1.790;2023-06-10T06:02:05;15.23;;;6.65;;
78406;SDS011;67692;51.074;-1.790;2023-06-10T06:04:31;21.00;;;6.70;;
78406;SDS011;67692;51.074;-1.790;2023-06-10T06:06:58;21.23;;;7.00;;
78406;SDS011;67692;51.074;-1.790;2023-06-10T06:09:25;18.60;;;6.07;;
78406;SDS011;67692;51.074;-1.790;2023-06-10T06:11:53;19.88;;;6.13;;
78406;SDS011;67692;51.074;-1.790;2023-06-10T06:14:19;17.42;;;5.82;;
78406;SDS011;67692;51.074;-1.790;2023-06-10T06:16:46;19.00;;;6.15;;
78406;SDS011;67692;51.074;-1.790;2023-06-10T06:19:12;17.90;;;6.10;;
78406;SDS011;67692;51.074;-1.790;2023-06-10T06:21:39;19.60;;;6.30;;
78406;SDS011;67692;51.074;-1.790;2023-06-10T06:24:06;17.25;;;5.55;;
78406;SDS011;67692;51.074;-1.790;2023-06-10T06:26:33;23.42;;;6.25;;
78406;SDS011;67692;51.074;-1.790;2023-06-10T06:29:01;16.10;;;6.05;;
78406;SDS011;67692;51.074;-1.790;2023-06-10T06:31:27;20.30;;;7.30;;
78406;SDS011;67692;51.074;-1.790;2023-06-10T06:33:54;14.82;;;6.03;;
78406;SDS011;67692;51.074;-1.790;2023-06-10T06:36:20;15.13;;;5.55;;
78406;SDS011;67692;51.074;-1.790;2023-06-10T06:38:47;16.50;;;5.95;;
78406;SDS011;67692;51.074;-1.790;2023-06-10T06:41:13;19.17;;;5.90;;
78406;SDS011;67692;51.074;-1.790;2023-06-10T06:43:40;18.40;;;5.78;;
78406;SDS011;67692;51.074;-1.790;2023-06-10T06:46:09;21.80;;;6.18;;
78406;SDS011;67692;51.074;-1.790;2023-06-10T06:48:36;17.55;;;6.40;;
78406;SDS011;67692;51.074;-1.790;2023-06-10T06:51:02;16.42;;;6.22;;
78406;SDS011;67692;51.074;-1.790;2023-06-10T06:53:29;19.33;;;6.40;;
78406;SDS011;67692;51.074;-1.790;2023-06-10T06:55:56;23.92;;;6.40;;
78406;SDS011;67692;51.074;-1.790;2023-06-10T06:58:22;20.83;;;5.55;;
78406;SDS011;67692;51.074;-1.790;2023-06-10T07:00:49;14.57;;;6.00;;
78406;SDS011;67692;51.074;-1.790;2023-06-10T07:03:17;20.67;;;6.97;;
78406;SDS011;67692;51.074;-1.790;2023-06-10T07:05:44;16.95;;;6.65;;
78406;SDS011;67692;51.074;-1.790;2023-06-10T07:08:10;14.52;;;6.05;;
78406;SDS011;67692;51.074;-1.790;2023-06-10T07:10:37;22.77;;;6.35;;
78406;SDS011;67692;51.074;-1.790;2023-06-10T07:13:04;15.00;;;6.05;;
78406;SDS011;67692;51.074;-1.790;2023-06-10T07:15:30;17.58;;;6.03;;
78406;SDS011;67692;51.074;-1.790;2023-06-10T07:17:57;17.40;;;6.38;;
78406;SDS011;67692;51.074;-1.790;2023-06-10T07:20:25;20.45;;;6.32;;
78406;SDS011;67692;51.074;-1.790;2023-06-10T07:22:52;23.95;;;6.78;;
78406;SDS011;67692;51.074;-1.790;2023-06-10T07:25:18;16.70;;;6.13;;
78406;SDS011;67692;51.074;-1.790;2023-06-10T07:27:45;23.48;;;7.05;;
78406;SDS011;67692;51.074;-1.790;2023-06-10T07:30:12;20.67;;;7.38;;
78406;SDS011;67692;51.074;-1.790;2023-06-10T07:32:39;18.83;;;6.93;;
78406;SDS011;67692;51.074;-1.790;2023-06-10T07:35:07;17.73;;;6.13;;
78406;SDS011;67692;51.074;-1.790;2023-06-10T07:37:36;20.95;;;6.68;;
78406;SDS011;67692;51.074;-1.790;2023-06-10T07:40:03;15.75;;;6.22;;
78406;SDS011;67692;51.074;-1.790;2023-06-10T07:42:31;18.13;;;5.95;;
78406;SDS011;67692;51.074;-1.790;2023-06-10T07:44:58;17.10;;;6.15;;
78406;SDS011;67692;51.074;-1.790;2023-06-10T07:47:24;18.85;;;6.65;;
78406;SDS011;67692;51.074;-1.790;2023-06-10T07:49:51;16.08;;;6.40;;
78406;SDS011;67692;51.074;-1.790;2023-06-10T07:52:17;14.98;;;6.38;;
78406;SDS011;67692;51.074;-1.790;2023-06-10T07:54:46;17.67;;;5.88;;
78406;SDS011;67692;51.074;-1.790;2023-06-10T07:57:12;18.08;;;7.13;;
78406;SDS011;67692;51.074;-1.790;2023-06-10T07:59:39;18.52;;;6.35;;
78406;SDS011;67692;51.074;-1.790;2023-06-10T08:02:05;15.38;;;6.15;;
78406;SDS011;67692;51.074;-1.790;2023-06-10T08:04:32;19.42;;;7.00;;
78406;SDS011;67692;51.074;-1.790;2023-06-10T08:07:00;18.23;;;6.85;;
78406;SDS011;67692;51.074;-1.790;2023-06-10T08:09:27;17.23;;;6.03;;
78406;SDS011;67692;51.074;-1.790;2023-06-10T08:11:55;13.32;;;6.22;;
78406;SDS011;67692;51.074;-1.790;2023-06-10T08:14:21;17.90;;;6.45;;
78406;SDS011;67692;51.074;-1.790;2023-06-10T08:16:48;14.48;;;6.40;;
78406;SDS011;67692;51.074;-1.790;2023-06-10T08:19:15;19.38;;;8.23;;
78406;SDS011;67692;51.074;-1.790;2023-06-10T08:21:41;19.50;;;6.40;;
78406;SDS011;67692;51.074;-1.790;2023-06-10T08:24:08;19.40;;;6.93;;
78406;SDS011;67692;51.074;-1.790;2023-06-10T08:26:35;16.38;;;6.20;;
78406;SDS011;67692;51.074;-1.790;2023-06-10T08:29:03;15.80;;;6.47;;
78406;SDS011;67692;51.074;-1.790;2023-06-10T08:31:30;16.00;;;6.30;;
78406;SDS011;67692;51.074;-1.790;2023-06-10T08:33:56;13.38;;;5.50;;
78406;SDS011;67692;51.074;-1.790;2023-06-10T08:36:23;19.48;;;7.43;;
78406;SDS011;67692;51.074;-1.790;2023-06-10T08:38:50;19.73;;;7.88;;
78406;SDS011;67692;51.074;-1.790;2023-06-10T08:41:17;20.85;;;7.50;;
78406;SDS011;67692;51.074;-1.790;2023-06-10T08:43:46;15.88;;;5.85;;
78406;SDS011;67692;51.074;-1.790;2023-06-10T08:46:18;17.25;;;6.25;;
78406;SDS011;67692;51.074;-1.790;2023-06-10T08:48:45;20.52;;;7.68;;
78406;SDS011;67692;51.074;-1.790;2023-06-10T08:51:15;21.13;;;7.25;;
78406;SDS011;67692;51.074;-1.790;2023-06-10T08:53:45;21.52;;;6.53;;
78406;SDS011;67692;51.074;-1.790;2023-06-10T08:56:16;14.77;;;6.50;;
78406;SDS011;67692;51.074;-1.790;2023-06-10T08:58:44;15.23;;;6.35;;
78406;SDS011;67692;51.074;-1.790;2023-06-10T09:01:11;14.18;;;6.40;;
78406;SDS011;67692;51.074;-1.790;2023-06-10T09:03:40;16.23;;;7.03;;
78406;SDS011;67692;51.074;-1.790;2023-06-10T09:06:08;15.25;;;6.75;;
78406;SDS011;67692;51.074;-1.790;2023-06-10T09:08:35;17.25;;;7.10;;
78406;SDS011;67692;51.074;-1.790;2023-06-10T09:11:02;18.10;;;7.22;;
78406;SDS011;67692;51.074;-1.790;2023-06-10T09:13:29;20.65;;;8.52;;
78406;SDS011;67692;51.074;-1.790;2023-06-10T09:15:56;12.43;;;5.65;;
78406;SDS011;67692;51.074;-1.790;2023-06-10T09:20:54;15.90;;;5.75;;
78406;SDS011;67692;51.074;-1.790;2023-06-10T09:23:21;18.80;;;6.15;;
78406;SDS011;67692;51.074;-1.790;2023-06-10T09:25:53;16.70;;;6.43;;
78406;SDS011;67692;51.074;-1.790;2023-06-10T09:28:22;17.20;;;6.43;;
78406;SDS011;67692;51.074;-1.790;2023-06-10T09:30:49;13.15;;;5.43;;
78406;SDS011;67692;51.074;-1.790;2023-06-10T09:33:16;15.50;;;5.18;;
78406;SDS011;67692;51.074;-1.790;2023-06-10T09:35:46;17.40;;;5.85;;
78406;SDS011;67692;51.074;-1.790;2023-06-10T09:38:18;13.55;;;5.70;;
78406;SDS011;67692;51.074;-1.790;2023-06-10T09:40:49;16.80;;;6.07;;
78406;SDS011;67692;51.074;-1.790;2023-06-10T09:43:17;13.30;;;5.47;;
78406;SDS011;67692;51.074;-1.790;2023-06-10T09:45:44;14.32;;;5.95;;
78406;SDS011;67692;51.074;-1.790;2023-06-10T09:48:14;15.73;;;5.45;;
78406;SDS011;67692;51.074;-1.790;2023-06-10T09:50:41;15.13;;;5.65;;
78406;SDS011;67692;51.074;-1.790;2023-06-10T09:53:10;15.82;;;6.03;;
78406;SDS011;67692;51.074;-1.790;2023-06-10T09:55:39;16.75;;;5.93;;
78406;SDS011;67692;51.074;-1.790;2023-06-10T09:58:06;15.40;;;6.28;;
78406;SDS011;67692;51.074;-1.790;2023-06-10T10:00:33;15.95;;;6.05;;
78406;SDS011;67692;51.074;-1.790;2023-06-10T10:03:00;11.88;;;5.63;;
78406;SDS011;67692;51.074;-1.790;2023-06-10T10:05:27;14.55;;;5.88;;
78406;SDS011;67692;51.074;-1.790;2023-06-10T10:07:54;10.27;;;5.53;;
78406;SDS011;67692;51.074;-1.790;2023-06-10T10:10:21;11.98;;;5.30;;
78406;SDS011;67692;51.074;-1.790;2023-06-10T10:12:50;12.50;;;5.35;;
78406;SDS011;67692;51.074;-1.790;2023-06-10T10:15:20;16.73;;;6.65;;
78406;SDS011;67692;51.074;-1.790;2023-06-10T10:17:48;16.38;;;6.00;;
78406;SDS011;67692;51.074;-1.790;2023-06-10T10:20:20;16.10;;;6.25;;
78406;SDS011;67692;51.074;-1.790;2023-06-10T10:22:53;14.18;;;5.72;;
78406;SDS011;67692;51.074;-1.790;2023-06-10T10:25:23;11.73;;;5.35;;
78406;SDS011;67692;51.074;-1.790;2023-06-10T10:27:55;14.57;;;7.28;;
78406;SDS011;67692;51.074;-1.790;2023-06-10T10:30:24;13.93;;;5.65;;
78406;SDS011;67692;51.074;-1.790;2023-06-10T10:32:55;11.95;;;5.68;;
78406;SDS011;67692;51.074;-1.790;2023-06-10T10:35:24;11.90;;;5.55;;
78406;SDS011;67692;51.074;-1.790;2023-06-10T10:37:52;12.93;;;5.68;;
78406;SDS011;67692;51.074;-1.790;2023-06-10T10:40:20;13.25;;;5.82;;
78406;SDS011;67692;51.074;-1.790;2023-06-10T10:42:47;14.50;;;6.05;;
78406;SDS011;67692;51.074;-1.790;2023-06-10T10:45:16;15.50;;;6.25;;
78406;SDS011;67692;51.074;-1.790;2023-06-10T10:47:44;12.10;;;5.30;;
78406;SDS011;67692;51.074;-1.790;2023-06-10T10:50:15;12.30;;;5.20;;
78406;SDS011;67692;51.074;-1.790;2023-06-10T10:52:47;17.98;;;6.25;;
78406;SDS011;67692;51.074;-1.790;2023-06-10T10:55:18;13.85;;;5.32;;
78406;SDS011;67692;51.074;-1.790;2023-06-10T10:57:52;12.63;;;5.43;;
78406;SDS011;67692;51.074;-1.790;2023-06-10T11:00:25;10.50;;;5.30;;
78406;SDS011;67692;51.074;-1.790;2023-06-10T11:02:53;11.43;;;5.40;;
78406;SDS011;67692;51.074;-1.790;2023-06-10T11:05:31;13.50;;;5.40;;
78406;SDS011;67692;51.074;-1.790;2023-06-10T11:08:04;13.48;;;5.45;;
78406;SDS011;67692;51.074;-1.790;2023-06-10T11:10:31;14.82;;;5.55;;
78406;SDS011;67692;51.074;-1.790;2023-06-10T11:12:59;13.52;;;5.30;;
78406;SDS011;67692;51.074;-1.790;2023-06-10T11:15:28;16.67;;;6.00;;
78406;SDS011;67692;51.074;-1.790;2023-06-10T11:20:59;13.75;;;6.03;;
78406;SDS011;67692;51.074;-1.790;2023-06-10T11:23:32;14.13;;;5.00;;
78406;SDS011;67692;51.074;-1.790;2023-06-10T11:29:03;13.40;;;4.93;;
78406;SDS011;67692;51.074;-1.790;2023-06-10T11:31:42;9.45;;;5.00;;
78406;SDS011;67692;51.074;-1.790;2023-06-10T11:34:10;11.57;;;5.10;;
78406;SDS011;67692;51.074;-1.790;2023-06-10T11:36:37;13.15;;;5.68;;
78406;SDS011;67692;51.074;-1.790;2023-06-10T11:39:07;13.05;;;5.47;;
78406;SDS011;67692;51.074;-1.790;2023-06-10T11:41:35;11.85;;;5.13;;
78406;SDS011;67692;51.074;-1.790;2023-06-10T11:44:03;9.45;;;4.82;;
78406;SDS011;67692;51.074;-1.790;2023-06-10T11:46:33;13.80;;;5.38;;
78406;SDS011;67692;51.074;-1.790;2023-06-10T11:49:01;14.07;;;5.15;;
78406;SDS011;67692;51.074;-1.790;2023-06-10T11:51:29;11.30;;;5.03;;
78406;SDS011;67692;51.074;-1.790;2023-06-10T11:53:58;13.85;;;5.50;;
78406;SDS011;67692;51.074;-1.790;2023-06-10T11:56:25;15.25;;;5.70;;
78406;SDS011;67692;51.074;-1.790;2023-06-10T11:58:53;14.40;;;5.85;;
78406;SDS011;67692;51.074;-1.790;2023-06-10T12:01:20;16.50;;;5.90;;
78406;SDS011;67692;51.074;-1.790;2023-06-10T12:03:48;10.80;;;5.30;;
78406;SDS011;67692;51.074;-1.790;2023-06-10T12:06:23;18.40;;;6.18;;
78406;SDS011;67692;51.074;-1.790;2023-06-10T12:08:50;15.77;;;6.07;;
78406;SDS011;67692;51.074;-1.790;2023-06-10T12:11:17;14.57;;;5.32;;
78406;SDS011;67692;51.074;-1.790;2023-06-10T12:13:45;15.93;;;5.35;;
78406;SDS011;67692;51.074;-1.790;2023-06-10T12:16:13;14.00;;;6.05;;
78406;SDS011;67692;51.074;-1.790;2023-06-10T12:18:41;11.40;;;5.30;;
78406;SDS011;67692;51.074;-1.790;2023-06-10T12:21:18;10.30;;;5.03;;
78406;SDS011;67692;51.074;-1.790;2023-06-10T12:24:07;12.18;;;4.82;;
78406;SDS011;67692;51.074;-1.790;2023-06-10T12:26:38;13.00;;;5.30;;
78406;SDS011;67692;51.074;-1.790;2023-06-10T12:31:55;16.10;;;6.22;;
78406;SDS011;67692;51.074;-1.790;2023-06-10T12:34:33;13.82;;;5.70;;
78406;SDS011;67692;51.074;-1.790;2023-06-10T12:37:01;12.32;;;5.20;;
78406;SDS011;67692;51.074;-1.790;2023-06-10T12:39:31;15.27;;;5.95;;
78406;SDS011;67692;51.074;-1.790;2023-06-10T12:41:58;15.60;;;5.55;;
78406;SDS011;67692;51.074;-1.790;2023-06-10T12:44:32;13.32;;;5.88;;
78406;SDS011;67692;51.074;-1.790;2023-06-10T12:46:59;11.73;;;5.75;;
78406;SDS011;67692;51.074;-1.790;2023-06-10T12:49:27;10.25;;;4.88;;
78406;SDS011;67692;51.074;-1.790;2023-06-10T12:51:53;15.18;;;5.82;;
78406;SDS011;67692;51.074;-1.790;2023-06-10T12:54:20;10.95;;;4.78;;
78406;SDS011;67692;51.074;-1.790;2023-06-10T12:56:49;14.90;;;5.65;;
78406;SDS011;67692;51.074;-1.790;2023-06-10T12:59:16;10.35;;;5.20;;
78406;SDS011;67692;51.074;-1.790;2023-06-10T13:01:42;11.02;;;5.13;;
78406;SDS011;67692;51.074;-1.790;2023-06-10T13:04:09;12.68;;;5.38;;
78406;SDS011;67692;51.074;-1.790;2023-06-10T13:06:36;10.77;;;4.78;;
78406;SDS011;67692;51.074;-1.790;2023-06-10T13:09:04;9.85;;;4.97;;
78406;SDS011;67692;51.074;-1.790;2023-06-10T13:11:33;11.07;;;5.20;;
78406;SDS011;67692;51.074;-1.790;2023-06-10T13:14:01;9.85;;;5.35;;
78406;SDS011;67692;51.074;-1.790;2023-06-10T13:16:29;12.13;;;5.30;;
78406;SDS011;67692;51.074;-1.790;2023-06-10T13:18:56;15.88;;;5.35;;
78406;SDS011;67692;51.074;-1.790;2023-06-10T13:21:23;12.00;;;5.22;;
78406;SDS011;67692;51.074;-1.790;2023-06-10T13:23:50;9.75;;;5.18;;
78406;SDS011;67692;51.074;-1.790;2023-06-10T13:26:17;11.43;;;5.03;;
78406;SDS011;67692;51.074;-1.790;2023-06-10T13:28:44;13.80;;;5.57;;
78406;SDS011;67692;51.074;-1.790;2023-06-10T13:31:12;11.68;;;5.07;;
78406;SDS011;67692;51.074;-1.790;2023-06-10T13:33:38;11.80;;;5.78;;
78406;SDS011;67692;51.074;-1.790;2023-06-10T13:36:05;9.05;;;4.97;;
78406;SDS011;67692;51.074;-1.790;2023-06-10T13:38:32;10.38;;;4.93;;
78406;SDS011;67692;51.074;-1.790;2023-06-10T13:40:59;9.35;;;4.68;;
78406;SDS011;67692;51.074;-1.790;2023-06-10T13:43:26;12.70;;;5.32;;
78406;SDS011;67692;51.074;-1.790;2023-06-10T13:45:53;10.27;;;5.15;;
78406;SDS011;67692;51.074;-1.790;2023-06-10T13:48:21;10.35;;;4.88;;
78406;SDS011;67692;51.074;-1.790;2023-06-10T13:50:48;10.75;;;4.72;;
78406;SDS011;67692;51.074;-1.790;2023-06-10T13:53:15;8.48;;;4.55;;
78406;SDS011;67692;51.074;-1.790;2023-06-10T13:55:41;10.30;;;4.90;;
78406;SDS011;67692;51.074;-1.790;2023-06-10T13:58:08;8.00;;;4.18;;
78406;SDS011;67692;51.074;-1.790;2023-06-10T14:00:34;9.52;;;4.68;;
78406;SDS011;67692;51.074;-1.790;2023-06-10T14:03:01;7.55;;;4.30;;
78406;SDS011;67692;51.074;-1.790;2023-06-10T14:05:29;8.18;;;3.78;;
78406;SDS011;67692;51.074;-1.790;2023-06-10T14:07:56;7.38;;;3.90;;
78406;SDS011;67692;51.074;-1.790;2023-06-10T14:10:23;8.90;;;3.90;;
78406;SDS011;67692;51.074;-1.790;2023-06-10T14:12:50;8.80;;;4.10;;
78406;SDS011;67692;51.074;-1.790;2023-06-10T14:15:16;8.13;;;4.18;;
78406;SDS011;67692;51.074;-1.790;2023-06-10T14:17:43;8.20;;;4.22;;
78406;SDS011;67692;51.074;-1.790;2023-06-10T14:20:10;7.18;;;3.97;;
78406;SDS011;67692;51.074;-1.790;2023-06-10T14:22:39;8.05;;;4.43;;
78406;SDS011;67692;51.074;-1.790;2023-06-10T14:25:06;8.52;;;4.15;;
78406;SDS011;67692;51.074;-1.790;2023-06-10T14:27:33;10.48;;;4.38;;
78406;SDS011;67692;51.074;-1.790;2023-06-10T14:29:59;8.30;;;4.70;;
78406;SDS011;67692;51.074;-1.790;2023-06-10T14:32:26;11.55;;;4.75;;
78406;SDS011;67692;51.074;-1.790;2023-06-10T14:34:52;10.13;;;5.35;;
78406;SDS011;67692;51.074;-1.790;2023-06-10T14:37:19;11.07;;;5.05;;
78406;SDS011;67692;51.074;-1.790;2023-06-10T14:39:47;9.63;;;5.15;;
78406;SDS011;67692;51.074;-1.790;2023-06-10T14:42:14;9.82;;;5.40;;